createdAt,value
2017-10-04T00:02:27.358Z,99.90
2017-10-04T00:04:55.636Z,99.90
2017-10-04T00:07:23.967Z,99.90
2017-10-04T00:09:53.754Z,99.90
2017-10-04T00:12:22.808Z,99.90
2017-10-04T00:14:51.131Z,99.90
2017-10-04T00:17:19.419Z,99.90
2017-10-04T00:19:49.201Z,99.90
2017-10-04T00:22:17.524Z,99.90
2017-10-04T00:24:45.798Z,99.90
2017-10-04T00:27:14.078Z,99.90
2017-10-04T00:32:11.934Z,99.90
2017-10-04T00:34:40.211Z,99.90
2017-10-04T00:37:08.560Z,99.90
2017-10-04T00:39:36.839Z,99.90
2017-10-04T00:42:05.114Z,99.90
2017-10-04T00:44:33.442Z,99.90
2017-10-04T00:47:02.486Z,99.90
2017-10-04T00:49:31.524Z,99.90
2017-10-04T00:51:59.839Z,99.90
2017-10-04T00:54:28.889Z,99.90
2017-10-04T00:56:57.568Z,99.90
2017-10-04T00:59:26.658Z,99.90
2017-10-04T01:01:54.934Z,99.90
2017-10-04T01:04:23.225Z,99.90
2017-10-04T01:09:21.544Z,99.90
2017-10-04T01:11:50.579Z,99.90
2017-10-04T01:14:18.936Z,99.90
2017-10-04T01:16:47.995Z,99.90
2017-10-04T01:19:16.275Z,99.90
2017-10-04T01:21:44.611Z,99.90
2017-10-04T01:24:12.891Z,99.90
2017-10-04T01:26:41.180Z,99.90
2017-10-04T01:29:09.504Z,99.90
2017-10-04T01:31:38.552Z,99.90
2017-10-04T01:34:06.835Z,99.90
2017-10-04T01:36:35.162Z,99.90
2017-10-04T01:41:32.955Z,99.90
2017-10-04T01:44:01.280Z,99.90
2017-10-04T01:46:31.070Z,99.90
2017-10-04T01:49:00.111Z,99.90
2017-10-04T01:51:28.439Z,99.90
2017-10-04T01:53:57.485Z,99.90
2017-10-04T01:56:25.759Z,99.90
2017-10-04T01:58:54.843Z,99.90
2017-10-04T02:01:24.255Z,99.90
2017-10-04T02:03:52.537Z,99.90
2017-10-04T02:06:20.855Z,99.90
2017-10-04T02:08:50.276Z,99.90
2017-10-04T02:11:19.327Z,99.90
2017-10-04T02:13:48.467Z,99.90
2017-10-04T02:16:18.282Z,99.90
2017-10-04T02:18:46.561Z,99.90
2017-10-04T02:23:44.787Z,99.90
2017-10-04T02:26:13.067Z,99.90
2017-10-04T02:31:41.789Z,99.90
2017-10-04T02:34:10.080Z,99.90
2017-10-04T02:36:39.493Z,99.90
2017-10-04T02:39:08.591Z,99.90
2017-10-04T02:44:06.383Z,99.90
2017-10-04T02:46:34.725Z,99.90
2017-10-04T02:49:03.011Z,99.90
2017-10-04T02:51:32.056Z,99.90
2017-10-04T02:54:00.390Z,99.90
2017-10-04T02:56:29.427Z,99.90
2017-10-04T02:58:58.847Z,99.90
2017-10-04T03:03:57.135Z,99.90
2017-10-04T03:06:26.555Z,99.90
2017-10-04T03:08:54.911Z,99.90
2017-10-04T03:11:23.194Z,99.90
2017-10-04T03:16:21.467Z,99.90
2017-10-04T03:18:49.752Z,99.90
2017-10-04T03:21:18.028Z,99.90
2017-10-04T03:23:46.364Z,99.90
2017-10-04T03:26:14.638Z,99.90
2017-10-04T03:31:12.907Z,99.90
2017-10-04T03:33:41.955Z,99.90
2017-10-04T03:36:10.240Z,99.90
2017-10-04T03:38:39.340Z,99.90
2017-10-04T03:41:08.382Z,99.90
2017-10-04T03:43:36.667Z,99.90
2017-10-04T03:46:06.495Z,99.90
2017-10-04T03:48:34.784Z,99.90
2017-10-04T03:51:03.072Z,99.90
2017-10-04T03:53:31.411Z,99.90
2017-10-04T03:55:59.688Z,99.90
2017-10-04T03:58:27.965Z,99.90
2017-10-04T04:00:56.307Z,99.90
2017-10-04T04:03:25.729Z,99.90
2017-10-04T04:08:52.131Z,99.90
2017-10-04T04:11:20.415Z,99.90
2017-10-04T04:13:49.502Z,99.90
2017-10-04T04:18:48.065Z,99.90
2017-10-04T04:26:16.403Z,99.90
2017-10-04T04:28:45.127Z,99.90
2017-10-04T04:31:13.402Z,99.90
2017-10-04T04:33:42.459Z,99.90
2017-10-04T04:36:10.823Z,99.90
2017-10-04T04:38:50.865Z,99.90
2017-10-04T04:41:19.189Z,99.90
2017-10-04T04:43:47.468Z,99.90
2017-10-04T04:46:16.518Z,99.90
2017-10-04T04:48:45.988Z,99.90
2017-10-04T04:51:14.269Z,99.90
2017-10-04T04:53:42.552Z,99.90
2017-10-04T04:56:11.647Z,99.90
2017-10-04T04:58:40.711Z,99.90
2017-10-04T05:01:08.978Z,99.90
2017-10-04T05:03:38.067Z,99.90
2017-10-04T05:08:36.254Z,99.90
2017-10-04T05:11:04.567Z,99.90
2017-10-04T05:13:32.885Z,99.90
2017-10-04T05:16:01.168Z,99.90
2017-10-04T05:18:29.508Z,99.90
2017-10-04T05:20:57.787Z,99.90
2017-10-04T05:23:26.075Z,99.90
2017-10-04T05:25:55.548Z,99.90
2017-10-04T05:28:23.857Z,99.90
2017-10-04T05:30:52.134Z,99.90
2017-10-04T05:33:20.459Z,99.90
2017-10-04T05:35:50.246Z,99.90
2017-10-04T05:40:48.926Z,99.90
2017-10-04T05:43:17.607Z,99.90
2017-10-04T05:53:14.488Z,99.90
2017-10-04T05:55:42.822Z,99.90
2017-10-04T05:58:12.614Z,99.90
2017-10-04T06:00:40.903Z,99.90
2017-10-04T06:03:09.230Z,99.90
2017-10-04T06:08:07.912Z,99.90
2017-10-04T06:10:36.263Z,99.90
2017-10-04T06:13:05.691Z,99.90
2017-10-04T06:15:33.977Z,99.90
2017-10-04T06:20:32.556Z,99.90
2017-10-04T06:25:31.565Z,99.90
2017-10-04T06:30:30.504Z,99.90
2017-10-04T06:32:58.872Z,99.90
2017-10-04T06:35:27.164Z,99.90
2017-10-04T06:37:56.202Z,99.90
2017-10-04T06:40:24.537Z,99.90
2017-10-04T06:42:52.827Z,99.90
2017-10-04T06:45:21.118Z,99.90
2017-10-04T06:47:49.480Z,99.90
2017-10-04T06:52:49.515Z,99.90
2017-10-04T06:55:17.795Z,99.90
2017-10-04T06:57:46.086Z,99.90
2017-10-04T07:00:14.417Z,99.90
2017-10-04T07:05:12.598Z,99.90
2017-10-04T07:07:41.735Z,99.90
2017-10-04T07:10:10.020Z,99.90
2017-10-04T07:12:39.815Z,99.90
2017-10-04T07:15:08.168Z,99.90
2017-10-04T07:17:36.448Z,99.90
2017-10-04T07:20:04.749Z,99.90
2017-10-04T07:22:33.071Z,99.90
2017-10-04T07:25:01.375Z,99.90
2017-10-04T07:27:30.799Z,99.90
2017-10-04T07:29:59.149Z,99.90
2017-10-04T07:34:57.354Z,99.90
2017-10-04T07:37:26.583Z,99.90
2017-10-04T07:39:56.829Z,99.90
2017-10-04T07:42:25.119Z,99.90
2017-10-04T07:44:53.455Z,99.90
2017-10-04T07:47:22.512Z,99.90
2017-10-04T07:49:51.566Z,99.90
2017-10-04T07:54:49.811Z,99.90
2017-10-04T07:57:18.090Z,99.90
2017-10-04T07:59:46.414Z,99.90
2017-10-04T08:02:14.699Z,99.90
2017-10-04T08:04:42.982Z,99.90
2017-10-04T08:07:12.447Z,99.90
2017-10-04T08:09:40.742Z,99.90
2017-10-04T08:12:09.023Z,99.90
2017-10-04T08:14:37.355Z,99.90
2017-10-04T08:19:35.544Z,99.90
2017-10-04T08:22:03.895Z,99.90
2017-10-04T08:24:32.193Z,99.90
2017-10-04T08:27:01.256Z,99.90
2017-10-04T08:29:29.588Z,99.90
2017-10-04T08:31:58.645Z,99.90
2017-10-04T08:36:56.476Z,99.90
2017-10-04T08:39:26.726Z,99.90
2017-10-04T08:41:55.770Z,99.90
2017-10-04T08:44:24.099Z,99.90
2017-10-04T08:46:52.385Z,99.90
2017-10-04T08:49:20.667Z,99.90
2017-10-04T08:51:49.003Z,99.90
2017-10-04T08:54:17.290Z,99.90
2017-10-04T08:56:45.587Z,99.90
2017-10-04T08:59:14.699Z,99.90
2017-10-04T09:01:44.116Z,99.90
2017-10-04T09:04:24.750Z,99.90
2017-10-04T09:06:53.038Z,99.90
2017-10-04T09:11:51.288Z,99.90
2017-10-04T09:14:19.582Z,99.90
2017-10-04T09:16:49.376Z,99.90
2017-10-04T09:21:47.602Z,99.90
2017-10-04T09:24:15.898Z,99.90
2017-10-04T09:26:44.223Z,99.90
2017-10-04T09:29:12.531Z,99.90
2017-10-04T09:31:42.319Z,99.90
2017-10-04T09:34:10.646Z,99.90
2017-10-04T09:36:38.922Z,99.50
2017-10-04T09:39:07.199Z,99.90
2017-10-04T09:41:35.536Z,99.00
2017-10-04T09:44:03.823Z,99.50
2017-10-04T09:46:32.512Z,99.90
2017-10-04T09:49:01.972Z,99.50
2017-10-04T09:51:31.766Z,99.90
2017-10-04T09:54:00.836Z,98.00
2017-10-04T09:56:29.159Z,98.90
2017-10-04T09:58:57.446Z,99.90
2017-10-04T10:01:25.736Z,99.90
2017-10-04T10:03:54.076Z,99.90
2017-10-04T10:06:22.396Z,99.10
2017-10-04T10:08:51.806Z,99.30
2017-10-04T10:11:20.135Z,99.40
2017-10-04T10:13:49.188Z,99.90
2017-10-04T10:16:18.235Z,99.20
2017-10-04T10:21:16.483Z,99.90
2017-10-04T10:26:14.715Z,99.90
2017-10-04T10:28:43.756Z,99.90
2017-10-04T10:31:12.799Z,99.90
2017-10-04T10:33:41.126Z,99.00
2017-10-04T10:36:10.178Z,99.90
2017-10-04T10:38:39.244Z,99.90
2017-10-04T10:41:07.572Z,99.90
2017-10-04T10:43:35.858Z,99.70
2017-10-04T10:46:04.142Z,98.70
2017-10-04T10:48:32.495Z,99.90
2017-10-04T10:51:01.551Z,99.30
2017-10-04T10:53:30.612Z,99.90
2017-10-04T10:56:00.447Z,98.50
2017-10-04T10:58:28.735Z,97.90
2017-10-04T11:00:58.536Z,98.70
2017-10-04T11:03:26.889Z,98.70
2017-10-04T11:05:55.175Z,98.20
2017-10-04T11:08:23.451Z,98.60
2017-10-04T11:10:52.543Z,98.40
2017-10-04T11:13:20.824Z,98.40
2017-10-04T11:15:49.115Z,98.10
2017-10-04T11:18:17.451Z,98.60
2017-10-04T11:20:45.727Z,98.30
2017-10-04T11:23:14.017Z,98.10
2017-10-04T11:25:43.880Z,97.90
2017-10-04T11:28:12.171Z,98.60
2017-10-04T11:30:40.459Z,99.40
2017-10-04T11:33:09.548Z,97.50
2017-10-04T11:35:37.835Z,97.20
2017-10-04T11:38:06.135Z,96.50
2017-10-04T11:40:34.498Z,97.20
2017-10-04T11:43:02.788Z,96.50
2017-10-04T11:50:30.590Z,97.80
2017-10-04T11:52:58.883Z,95.90
2017-10-04T11:55:28.364Z,94.30
2017-10-04T11:57:56.652Z,97.50
2017-10-04T12:02:54.911Z,97.60
2017-10-04T12:05:23.595Z,96.20
2017-10-04T12:10:21.460Z,94.90
2017-10-04T12:12:49.751Z,96.10
2017-10-04T12:15:18.035Z,96.00
2017-10-04T12:17:46.379Z,95.70
2017-10-04T12:20:14.658Z,95.90
2017-10-04T12:22:44.087Z,95.50
2017-10-04T12:27:42.699Z,95.00
2017-10-04T12:30:10.974Z,96.80
2017-10-04T12:32:39.309Z,94.50
2017-10-04T12:35:08.359Z,95.90
2017-10-04T12:37:36.649Z,95.20
2017-10-04T12:40:04.988Z,94.10
2017-10-04T12:42:33.272Z,94.40
2017-10-04T12:45:02.693Z,94.90
2017-10-04T12:47:31.018Z,95.80
2017-10-04T12:49:59.294Z,94.90
2017-10-04T12:52:27.580Z,95.70
2017-10-04T12:54:55.936Z,95.00
2017-10-04T12:59:53.731Z,95.50
2017-10-04T13:02:22.096Z,95.90
2017-10-04T13:07:21.043Z,97.80
2017-10-04T13:09:49.755Z,96.20
2017-10-04T13:12:18.038Z,97.30
2017-10-04T13:14:46.332Z,97.10
2017-10-04T13:17:15.440Z,98.10
2017-10-04T13:19:44.123Z,97.00
2017-10-04T13:22:12.403Z,97.70
2017-10-04T13:24:40.732Z,97.30
2017-10-04T13:27:10.512Z,97.20
2017-10-04T13:29:38.794Z,97.80
2017-10-04T13:32:08.016Z,97.10
2017-10-04T13:37:05.804Z,96.00
2017-10-04T13:39:34.143Z,97.90
2017-10-04T13:42:02.418Z,96.50
2017-10-04T13:44:31.843Z,96.30
2017-10-04T13:47:01.025Z,95.80
2017-10-04T13:49:29.699Z,95.70
2017-10-04T13:54:29.050Z,95.40
2017-10-04T13:56:58.094Z,96.60
2017-10-04T13:59:26.370Z,96.70
2017-10-04T14:01:54.712Z,96.00
2017-10-04T14:04:22.999Z,97.20
2017-10-04T14:06:52.418Z,96.20
2017-10-04T14:09:20.776Z,96.50
2017-10-04T14:11:49.045Z,96.20
2017-10-04T14:14:17.328Z,97.10
2017-10-04T14:16:45.654Z,97.30
2017-10-04T14:19:15.070Z,97.50
2017-10-04T14:21:44.127Z,97.60
2017-10-04T14:24:12.475Z,97.30
2017-10-04T14:26:41.882Z,97.20
2017-10-04T14:29:10.159Z,97.60
2017-10-04T14:31:39.251Z,98.00
2017-10-04T14:34:07.531Z,98.40
2017-10-04T14:36:35.810Z,97.50
2017-10-04T14:39:04.179Z,97.90
2017-10-04T14:41:33.438Z,98.00
2017-10-04T14:44:02.116Z,98.10
2017-10-04T14:46:30.440Z,97.90
2017-10-04T14:48:58.722Z,99.90
2017-10-04T14:51:27.002Z,97.60
2017-10-04T14:53:55.371Z,97.90
2017-10-04T14:56:23.752Z,98.00
2017-10-04T14:58:52.795Z,96.60
2017-10-04T15:01:21.128Z,96.80
2017-10-04T15:03:50.175Z,97.20
2017-10-04T15:06:19.596Z,97.90
2017-10-04T15:08:47.919Z,97.40
2017-10-04T15:11:16.207Z,97.00
2017-10-04T15:13:44.485Z,97.50
2017-10-04T15:16:13.574Z,97.70
2017-10-04T15:18:42.624Z,97.30
2017-10-04T15:21:11.671Z,97.50
2017-10-04T15:23:39.995Z,97.20
2017-10-04T15:26:09.786Z,97.90
2017-10-04T15:28:38.831Z,98.10
2017-10-04T15:31:08.315Z,97.30
2017-10-04T15:33:36.604Z,96.70
2017-10-04T15:36:04.874Z,97.50
2017-10-04T15:38:34.716Z,96.80
2017-10-04T15:41:02.992Z,97.40
2017-10-04T15:43:31.266Z,97.50
2017-10-04T15:45:59.594Z,97.00
2017-10-04T15:48:27.871Z,97.50
2017-10-04T15:50:56.149Z,97.70
2017-10-04T15:53:24.462Z,97.70
2017-10-04T15:55:53.143Z,97.40
2017-10-04T15:58:21.423Z,97.10
2017-10-04T16:00:49.751Z,97.60
2017-10-04T16:03:18.035Z,98.50
2017-10-04T16:05:46.315Z,96.80
2017-10-04T16:08:15.498Z,98.80
2017-10-04T16:10:44.191Z,98.40
2017-10-04T16:13:12.476Z,98.50
2017-10-04T16:15:40.819Z,99.80
2017-10-04T16:18:09.111Z,98.80
2017-10-04T16:20:37.386Z,98.70
2017-10-04T16:23:05.734Z,98.70
2017-10-04T16:25:34.779Z,98.40
2017-10-04T16:28:03.068Z,98.80
2017-10-04T16:33:01.664Z,98.00
2017-10-04T16:35:29.968Z,98.50
2017-10-04T16:37:58.299Z,99.10
2017-10-04T16:40:27.355Z,99.70
2017-10-04T16:42:55.644Z,99.20
2017-10-04T16:45:25.047Z,99.40
2017-10-04T16:47:53.718Z,99.90
2017-10-04T16:50:21.994Z,99.70
2017-10-04T16:52:50.340Z,98.90
2017-10-04T16:55:18.627Z,99.20
2017-10-04T17:00:16.488Z,99.50
2017-10-04T17:02:44.780Z,99.60
2017-10-04T17:05:13.064Z,98.80
2017-10-04T17:10:10.907Z,99.90
2017-10-04T17:12:39.962Z,99.90
2017-10-04T17:15:09.419Z,99.90
2017-10-04T17:17:37.711Z,99.90
2017-10-04T17:20:05.989Z,99.90
2017-10-04T17:22:34.326Z,99.90
2017-10-04T17:25:03.366Z,99.90
2017-10-04T17:30:01.616Z,99.90
2017-10-04T17:34:59.809Z,99.90
2017-10-04T17:37:28.135Z,99.90
2017-10-04T17:39:56.416Z,99.90
2017-10-04T17:42:24.690Z,99.90
2017-10-04T17:44:53.007Z,99.90
2017-10-04T17:47:22.343Z,99.90
2017-10-04T17:49:51.759Z,99.90
2017-10-04T17:52:21.222Z,99.90
2017-10-04T17:57:19.403Z,99.90
2017-10-04T17:59:47.743Z,99.90
2017-10-04T18:02:16.023Z,99.90
2017-10-04T18:04:44.304Z,99.90
2017-10-04T18:12:11.632Z,99.90
2017-10-04T18:14:39.958Z,99.90
2017-10-04T18:17:08.251Z,99.60
2017-10-04T18:22:06.866Z,99.90
2017-10-04T18:24:35.923Z,99.90
2017-10-04T18:27:04.196Z,99.90
2017-10-04T18:29:32.529Z,99.90
2017-10-04T18:32:00.813Z,99.90
2017-10-04T18:34:29.288Z,99.90
2017-10-04T18:36:59.164Z,99.90
2017-10-04T18:39:27.502Z,99.90
2017-10-04T18:41:55.784Z,99.90
2017-10-04T18:44:24.144Z,99.90
2017-10-04T18:46:53.251Z,99.90
2017-10-04T18:49:21.588Z,99.90
2017-10-04T18:54:19.443Z,99.90
2017-10-04T18:56:47.848Z,99.90
2017-10-04T18:59:17.705Z,99.90
2017-10-04T19:01:45.992Z,99.90
2017-10-04T19:04:15.448Z,99.90
2017-10-04T19:06:44.186Z,99.90
2017-10-04T19:09:12.555Z,99.90
2017-10-04T19:11:40.920Z,99.90
2017-10-04T19:14:09.395Z,99.90
2017-10-04T19:16:40.050Z,99.90
2017-10-04T19:21:38.838Z,99.90
2017-10-04T19:24:07.546Z,99.90
2017-10-04T19:26:35.876Z,99.90
2017-10-04T19:29:04.935Z,99.90
2017-10-04T19:31:34.976Z,99.90
2017-10-04T19:34:03.372Z,99.90
2017-10-04T19:36:31.695Z,99.90
2017-10-04T19:39:01.111Z,99.90
2017-10-04T19:41:29.458Z,99.90
2017-10-04T19:43:57.835Z,99.90
2017-10-04T19:46:26.227Z,99.90
2017-10-04T19:48:54.955Z,99.90
2017-10-04T19:51:24.099Z,99.90
2017-10-04T19:53:52.383Z,99.90
2017-10-04T19:56:20.868Z,99.90
2017-10-04T19:58:49.231Z,99.90
2017-10-04T20:01:17.612Z,99.90
2017-10-04T20:03:47.458Z,99.90
2017-10-04T20:06:16.514Z,99.90
2017-10-04T20:08:46.077Z,99.90
2017-10-04T20:11:14.448Z,99.90
2017-10-04T20:13:42.788Z,99.90
2017-10-04T20:16:11.094Z,99.90
2017-10-04T20:18:39.459Z,99.90
2017-10-04T20:21:07.741Z,99.90
2017-10-04T20:23:36.015Z,99.90
2017-10-04T20:26:05.560Z,99.90
2017-10-04T20:28:33.848Z,99.90
2017-10-04T20:31:02.147Z,99.90
2017-10-04T20:33:30.553Z,99.90
2017-10-04T20:35:58.971Z,99.90
2017-10-04T20:38:28.031Z,99.90
2017-10-04T20:40:57.213Z,99.90
2017-10-04T20:43:27.078Z,99.90
2017-10-04T20:45:55.366Z,99.90
2017-10-04T20:48:24.610Z,99.90
2017-10-04T20:50:52.891Z,99.90
2017-10-04T20:53:22.743Z,99.90
2017-10-04T20:58:20.988Z,99.90
2017-10-04T21:00:49.344Z,99.90
2017-10-04T21:03:19.228Z,99.90
2017-10-04T21:05:47.603Z,99.90
2017-10-04T21:08:15.963Z,99.90
2017-10-04T21:10:44.408Z,99.90
2017-10-04T21:13:12.684Z,99.90
2017-10-04T21:15:42.265Z,99.90
2017-10-04T21:18:12.130Z,99.90
2017-10-04T21:20:40.436Z,99.90
2017-10-04T21:23:08.740Z,99.90
2017-10-04T21:25:37.528Z,99.90
2017-10-04T21:28:06.942Z,99.90
2017-10-04T21:30:36.419Z,99.90
2017-10-04T21:33:04.763Z,99.90
2017-10-04T21:35:33.839Z,99.90
2017-10-04T21:38:02.215Z,99.90
2017-10-04T21:43:01.290Z,99.90
2017-10-04T21:45:29.603Z,99.90
2017-10-04T21:47:58.022Z,99.90
2017-10-04T21:50:26.337Z,99.90
2017-10-04T21:52:55.402Z,99.90
2017-10-04T21:55:23.783Z,99.90
2017-10-04T21:57:52.120Z,99.90
2017-10-04T22:00:20.404Z,99.90
2017-10-04T22:02:48.885Z,99.90
2017-10-04T22:05:18.818Z,99.90
2017-10-04T22:07:47.518Z,99.90
2017-10-04T22:10:16.258Z,99.90
2017-10-04T22:12:44.550Z,99.90
2017-10-04T22:15:13.606Z,99.90
2017-10-04T22:17:42.443Z,99.90
2017-10-04T22:20:11.905Z,99.90
2017-10-04T22:22:40.576Z,99.90
2017-10-04T22:25:08.898Z,99.90
2017-10-04T22:27:37.178Z,99.90
2017-10-04T22:30:05.460Z,99.90
2017-10-04T22:32:33.782Z,99.90
2017-10-04T22:35:02.072Z,99.90
2017-10-04T22:37:30.347Z,99.90
2017-10-04T22:39:58.685Z,99.90
2017-10-04T22:42:28.115Z,99.90
2017-10-04T22:47:26.707Z,99.90
2017-10-04T22:49:55.816Z,99.90
2017-10-04T22:52:24.103Z,99.90
2017-10-04T22:54:52.431Z,99.90
2017-10-04T22:57:20.719Z,99.90
2017-10-04T22:59:49.775Z,99.90
2017-10-04T23:02:19.231Z,99.90
2017-10-04T23:07:17.051Z,99.90
2017-10-04T23:09:45.366Z,99.90
2017-10-04T23:14:43.154Z,99.90
2017-10-04T23:17:11.467Z,99.90
2017-10-04T23:19:39.754Z,99.90
2017-10-04T23:22:08.039Z,99.90
2017-10-04T23:24:36.369Z,99.90
2017-10-04T23:27:04.656Z,99.90
2017-10-04T23:29:32.939Z,99.90
2017-10-04T23:34:30.782Z,99.90
2017-10-04T23:36:59.067Z,99.90
2017-10-04T23:39:28.543Z,99.90
2017-10-04T23:41:58.326Z,99.90
2017-10-04T23:44:26.616Z,99.90
2017-10-04T23:46:54.957Z,99.90
2017-10-04T23:49:24.392Z,99.90
2017-10-04T23:51:52.675Z,99.90
2017-10-04T23:54:21.042Z,99.90
2017-10-04T23:56:49.337Z,99.90
2017-10-04T23:59:17.627Z,99.90
